Portada
METAR-TAF:

METAR-TAF

Aeropuertos :

Foz do Iguaçu, Paraná, Brasil

Aeropuerto Internacional de Foz do Iguaçu

latitud: 25-31S, longitud: 054-35W, altitud: 180 m

Observación

El informe se hizo hace 43 minutos, a las 18:00 UTC
Viento 9 kt del norte-noreste
Temperatura 34°C
Humedad 39%
Presión 1011 hPa
Visibilidad 10 km o más
sin nubes por debajo de 1500 m y sin presencia de cumulonimbus.

METAR: SBFI 171800Z 03009KT CAVOK 34/18 Q1011

Hora: 16:43 (18:43 UTC)

Pronóstico

El informe se hizo hace 4 horas y 13 minutos, a las 14:30 UTC
Pronóstico válido del 17 a las 18 UTC al 18 a las 18 UTC
Viento 9 kt del norte-noreste
Visibilidad 10 km o más
sin nubes por debajo de 1500 m y sin presencia de cumulonimbus.
Evolucionando progresivamente
del 17 a las 21 UTC al 17 a las 23 UTC
Viento 5 kt del este-sureste

TAF: SBFI 171430Z 1718/1818 02009KT CAVOK TX35/1718Z TN23/1809Z BECMG 1721/1723 12005KT RMK PEB

Observaciones y pronósticos meteorológicos de más de 4000 aeropuertos (mensajes METAR y TAF).

Los puntos amarillos y rojos representan las estaciones disponibles.

Ponga el ratón en el punto deseado para ver el nombre de la estación.

Haga clic para ver las observaciones y los pronósticos meteorológicos.

Para cambiar el mapa : haga clic en los botones verdes con una cruz de color negro para hacer un zoom, en el botón verde con un guión para alejar o en las flechas verdes para mapas adyacentes.


METAR-TAF: